createdAt,value
2018-04-26T00:00:08.867Z,14.40
2018-04-26T00:02:37.795Z,14.40
2018-04-26T00:05:06.704Z,14.40
2018-04-26T00:07:35.583Z,14.30
2018-04-26T00:10:04.502Z,14.30
2018-04-26T00:12:34.148Z,14.40
2018-04-26T00:15:03.090Z,14.30
2018-04-26T00:17:31.964Z,14.30
2018-04-26T00:20:01.613Z,14.30
2018-04-26T00:22:30.517Z,14.30
2018-04-26T00:24:59.392Z,14.30
2018-04-26T00:27:28.288Z,14.30
2018-04-26T00:29:57.188Z,14.20
2018-04-26T00:32:26.128Z,14.30
2018-04-26T00:34:55.047Z,14.40
2018-04-26T00:37:23.924Z,14.40
2018-04-26T00:39:52.818Z,14.40
2018-04-26T00:42:21.745Z,14.30
2018-04-26T00:44:50.623Z,14.30
2018-04-26T00:47:19.540Z,14.30
2018-04-26T00:49:48.413Z,14.20
2018-04-26T00:52:17.300Z,14.10
2018-04-26T00:54:46.959Z,13.80
2018-04-26T00:57:15.871Z,13.80
2018-04-26T00:59:45.519Z,13.70
2018-04-26T01:02:14.399Z,13.70
2018-04-26T01:04:43.304Z,13.70
2018-04-26T01:07:12.176Z,13.60
2018-04-26T01:09:41.083Z,13.60
2018-04-26T01:12:09.978Z,13.60
2018-04-26T01:14:38.853Z,13.60
2018-04-26T01:17:07.727Z,13.60
2018-04-26T01:19:37.413Z,13.50
2018-04-26T01:22:06.295Z,13.40
2018-04-26T01:24:35.173Z,13.40
2018-04-26T01:27:04.140Z,13.30
2018-04-26T01:29:33.025Z,13.20
2018-04-26T01:32:01.905Z,13.20
2018-04-26T01:34:30.815Z,13.10
2018-04-26T01:37:18.244Z,13.10
2018-04-26T01:39:47.903Z,13.10
2018-04-26T01:42:16.803Z,13.10
2018-04-26T01:44:46.453Z,13.00
2018-04-26T01:47:15.353Z,13.00
2018-04-26T01:49:44.232Z,12.90
2018-04-26T01:52:13.140Z,12.90
2018-04-26T01:54:42.024Z,12.90
2018-04-26T01:57:10.902Z,12.80
2018-04-26T01:59:39.817Z,12.90
2018-04-26T02:02:08.698Z,13.00
2018-04-26T02:04:37.584Z,13.00
2018-04-26T02:07:06.486Z,13.10
2018-04-26T02:09:35.408Z,13.20
2018-04-26T02:12:04.292Z,13.20
2018-04-26T02:14:33.171Z,13.30
2018-04-26T02:17:02.082Z,13.30
2018-04-26T02:19:31.748Z,13.40
2018-04-26T02:22:00.672Z,13.40
2018-04-26T02:24:29.548Z,13.50
2018-04-26T02:26:58.430Z,13.50
2018-04-26T02:29:27.336Z,13.50
2018-04-26T02:31:56.218Z,13.60
2018-04-26T02:34:25.104Z,13.60
2018-04-26T02:36:54.003Z,13.60
2018-04-26T02:39:22.972Z,13.70
2018-04-26T02:41:52.643Z,13.80
2018-04-26T02:44:21.545Z,13.80
2018-04-26T02:46:51.196Z,13.90
2018-04-26T02:49:20.094Z,13.90
2018-04-26T02:51:49.743Z,13.80
2018-04-26T02:54:18.643Z,13.80
2018-04-26T02:56:47.568Z,13.80
2018-04-26T02:59:16.447Z,13.90
2018-04-26T03:01:45.329Z,13.90
2018-04-26T03:04:14.228Z,13.90
2018-04-26T03:06:43.108Z,13.90
2018-04-26T03:09:12.151Z,14.00
2018-04-26T03:11:41.040Z,14.10
2018-04-26T03:14:09.914Z,14.10
2018-04-26T03:16:38.835Z,14.10
2018-04-26T03:19:07.715Z,14.20
2018-04-26T03:21:37.364Z,14.20
2018-04-26T03:24:06.272Z,14.20
2018-04-26T03:26:35.153Z,14.20
2018-04-26T03:29:04.056Z,14.20
2018-04-26T03:31:32.963Z,14.20
2018-04-26T03:34:01.837Z,14.20
2018-04-26T03:36:30.740Z,14.20
2018-04-26T03:39:00.045Z,14.20
2018-04-26T03:41:29.690Z,14.30
2018-04-26T03:43:58.584Z,14.30
2018-04-26T03:46:27.493Z,14.30
2018-04-26T03:48:57.146Z,14.30
2018-04-26T03:51:26.015Z,14.30
2018-04-26T03:53:54.935Z,14.40
2018-04-26T03:56:24.608Z,14.40
2018-04-26T03:58:53.500Z,14.40
2018-04-26T04:01:41.036Z,14.50
2018-04-26T04:04:31.392Z,14.50
2018-04-26T04:07:00.271Z,14.50
2018-04-26T04:09:29.912Z,14.60
2018-04-26T04:11:58.821Z,14.60
2018-04-26T04:14:27.711Z,14.60
2018-04-26T04:16:57.388Z,14.70
2018-04-26T04:19:27.071Z,14.70
2018-04-26T04:21:55.950Z,14.70
2018-04-26T04:24:25.221Z,14.70
2018-04-26T04:26:54.171Z,14.60
2018-04-26T04:29:23.027Z,14.70
2018-04-26T04:31:51.925Z,14.60
2018-04-26T04:34:20.801Z,14.60
2018-04-26T04:36:49.699Z,14.60
2018-04-26T04:39:18.575Z,14.60
2018-04-26T04:41:47.483Z,14.70
2018-04-26T04:44:17.252Z,14.90
2018-04-26T04:46:46.139Z,14.90
2018-04-26T04:49:15.800Z,15.10
2018-04-26T04:51:45.478Z,15.10
2018-04-26T04:54:20.016Z,15.30
2018-04-26T04:56:48.987Z,15.30
2018-04-26T04:59:19.552Z,15.70
2018-04-26T05:01:48.600Z,16.00
2018-04-26T05:04:18.256Z,16.70
2018-04-26T05:06:47.129Z,16.60
2018-04-26T05:09:16.043Z,16.90
2018-04-26T05:11:45.684Z,17.00
2018-04-26T05:14:14.608Z,17.00
2018-04-26T05:16:44.302Z,16.90
2018-04-26T05:19:13.176Z,16.90
2018-04-26T05:21:42.816Z,16.80
2018-04-26T05:24:11.793Z,16.80
2018-04-26T05:26:40.673Z,16.70
2018-04-26T05:29:09.556Z,16.70
2018-04-26T05:31:38.475Z,16.60
2018-04-26T05:34:08.111Z,16.50
2018-04-26T05:36:36.984Z,16.60
2018-04-26T05:39:05.920Z,16.50
2018-04-26T05:41:35.556Z,16.50
2018-04-26T05:44:04.454Z,16.50
2018-04-26T05:46:33.440Z,16.40
2018-04-26T05:49:02.280Z,16.30
2018-04-26T05:51:31.149Z,16.30
2018-04-26T05:54:00.068Z,16.30
2018-04-26T05:56:28.946Z,16.20
2018-04-26T05:58:57.853Z,16.20
2018-04-26T06:01:26.758Z,16.20
2018-04-26T06:03:55.647Z,16.10
2018-04-26T06:06:24.528Z,16.10
2018-04-26T06:08:53.447Z,16.10
2018-04-26T06:11:23.186Z,16.00
2018-04-26T06:13:52.864Z,16.00
2018-04-26T06:16:21.739Z,16.00
2018-04-26T06:18:50.623Z,16.00
2018-04-26T06:21:19.534Z,16.00
2018-04-26T06:23:48.411Z,16.00
2018-04-26T06:26:17.291Z,16.00
2018-04-26T06:28:46.189Z,16.00
2018-04-26T06:31:15.067Z,16.00
2018-04-26T06:33:44.771Z,15.90
2018-04-26T06:36:13.640Z,16.00
2018-04-26T06:38:42.508Z,16.00
2018-04-26T06:41:11.401Z,16.00
2018-04-26T06:43:40.320Z,16.00
2018-04-26T06:46:09.204Z,16.00
2018-04-26T06:48:38.135Z,15.90
2018-04-26T06:51:07.035Z,15.90
2018-04-26T06:53:35.946Z,15.90
2018-04-26T06:56:05.579Z,15.90
2018-04-26T06:58:34.496Z,15.90
2018-04-26T07:01:03.388Z,15.90
2018-04-26T07:03:33.048Z,15.90
2018-04-26T07:06:01.919Z,15.90
2018-04-26T07:08:30.810Z,15.90
2018-04-26T07:10:59.719Z,15.90
2018-04-26T07:13:28.616Z,15.90
2018-04-26T07:15:57.544Z,15.90
2018-04-26T07:18:28.172Z,15.90
2018-04-26T07:20:57.808Z,16.00
2018-04-26T07:23:26.727Z,16.00
2018-04-26T07:25:55.604Z,16.10
2018-04-26T07:28:25.820Z,16.20
2018-04-26T07:30:54.781Z,16.20
2018-04-26T07:33:23.656Z,16.30
2018-04-26T07:35:52.563Z,16.40
2018-04-26T07:38:21.440Z,16.40
2018-04-26T07:40:50.340Z,16.50
2018-04-26T07:43:19.211Z,16.60
2018-04-26T07:45:48.118Z,16.70
2018-04-26T07:48:17.007Z,16.80
2018-04-26T07:50:45.924Z,16.90
2018-04-26T07:53:14.897Z,17.00
2018-04-26T07:55:43.755Z,17.10
2018-04-26T07:58:12.647Z,17.10
2018-04-26T08:00:41.561Z,17.20
2018-04-26T08:03:10.431Z,17.20
2018-04-26T08:05:39.303Z,17.30
2018-04-26T08:08:08.223Z,17.40
2018-04-26T08:10:37.898Z,18.00
2018-04-26T08:13:06.767Z,18.00
2018-04-26T08:15:35.664Z,18.50
2018-04-26T08:18:05.332Z,18.80
2018-04-26T08:20:35.104Z,18.80
2018-04-26T08:23:04.899Z,18.80
2018-04-26T08:25:33.780Z,18.90
2018-04-26T08:28:02.676Z,18.90
2018-04-26T08:30:31.622Z,18.70
2018-04-26T08:33:01.219Z,18.80
2018-04-26T08:35:30.115Z,18.80
2018-04-26T08:37:59.002Z,18.70
2018-04-26T08:40:28.026Z,18.60
2018-04-26T08:42:56.943Z,18.60
2018-04-26T08:45:25.834Z,18.50
2018-04-26T08:47:55.514Z,18.50
2018-04-26T08:50:25.171Z,18.40
2018-04-26T08:52:54.048Z,18.40
2018-04-26T08:55:22.940Z,18.30
2018-04-26T08:57:51.852Z,18.30
2018-04-26T09:00:21.512Z,18.30
2018-04-26T09:02:50.408Z,18.30
2018-04-26T09:05:20.071Z,18.40
2018-04-26T09:07:48.940Z,18.40
2018-04-26T09:10:17.923Z,18.40
2018-04-26T09:12:46.797Z,18.40
2018-04-26T09:15:15.703Z,18.40
2018-04-26T09:17:45.363Z,18.30
2018-04-26T09:20:14.259Z,18.30
2018-04-26T09:22:43.184Z,18.20
2018-04-26T09:25:12.069Z,18.20
2018-04-26T09:27:40.964Z,18.10
2018-04-26T09:30:09.852Z,18.00
2018-04-26T09:32:38.727Z,17.90
2018-04-26T09:35:07.618Z,17.90
2018-04-26T09:37:36.592Z,17.70
2018-04-26T09:40:05.545Z,17.60
2018-04-26T09:42:34.415Z,17.50
2018-04-26T09:45:03.299Z,17.50
2018-04-26T09:47:32.191Z,17.40
2018-04-26T09:50:01.091Z,17.40
2018-04-26T09:52:30.763Z,17.10
2018-04-26T09:54:59.635Z,17.10
2018-04-26T09:57:28.551Z,17.10
2018-04-26T09:59:57.424Z,17.10
2018-04-26T10:02:26.292Z,17.00
2018-04-26T10:04:56.741Z,16.90
2018-04-26T10:07:25.615Z,16.90
2018-04-26T10:09:54.516Z,16.80
2018-04-26T10:12:23.408Z,16.70
2018-04-26T10:14:53.037Z,16.70
2018-04-26T10:17:21.934Z,16.70
2018-04-26T10:19:50.812Z,16.60
2018-04-26T10:22:19.704Z,16.60
2018-04-26T10:24:48.616Z,16.50
2018-04-26T10:27:17.483Z,16.50
2018-04-26T10:29:47.119Z,16.60
2018-04-26T10:32:16.019Z,16.70
2018-04-26T10:34:44.904Z,16.80
2018-04-26T10:37:13.775Z,16.80
2018-04-26T10:39:42.693Z,16.90
2018-04-26T10:42:11.562Z,17.00
2018-04-26T10:44:40.485Z,17.00
2018-04-26T10:47:09.460Z,17.00
2018-04-26T10:49:38.407Z,16.90
2018-04-26T10:52:07.280Z,17.00
2018-04-26T10:54:36.175Z,16.90
2018-04-26T10:57:05.077Z,16.90
2018-04-26T10:59:33.970Z,16.90
2018-04-26T11:02:03.681Z,16.80
2018-04-26T11:04:32.571Z,16.70
2018-04-26T11:07:01.435Z,16.70
2018-04-26T11:09:30.343Z,16.50
2018-04-26T11:11:59.215Z,16.40
2018-04-26T11:14:28.115Z,16.30
2018-04-26T11:16:57.027Z,16.20
2018-04-26T11:19:25.913Z,16.10
2018-04-26T11:21:54.817Z,16.10
2018-04-26T11:24:23.727Z,16.00
2018-04-26T11:26:53.371Z,16.00
2018-04-26T11:29:22.381Z,16.00
2018-04-26T11:31:51.206Z,16.10
2018-04-26T11:34:20.081Z,16.10
2018-04-26T11:36:48.975Z,16.10
2018-04-26T11:39:17.867Z,16.00
2018-04-26T11:41:46.787Z,15.60
2018-04-26T11:44:16.428Z,15.10
2018-04-26T11:46:45.358Z,15.10
2018-04-26T11:49:14.222Z,15.00
2018-04-26T11:51:43.855Z,14.60
2018-04-26T11:54:12.753Z,14.60
2018-04-26T11:56:41.651Z,14.40
2018-04-26T11:59:10.563Z,14.40
2018-04-26T12:01:39.464Z,14.30
2018-04-26T12:04:08.343Z,14.20
2018-04-26T12:06:37.243Z,14.20
2018-04-26T12:09:06.155Z,14.10
2018-04-26T12:11:35.080Z,14.10
2018-04-26T12:14:03.959Z,13.90
2018-04-26T12:16:32.843Z,13.90
2018-04-26T12:19:01.751Z,13.90
2018-04-26T12:21:30.629Z,13.80
2018-04-26T12:23:59.556Z,13.70
2018-04-26T12:26:28.431Z,13.60
2018-04-26T12:28:57.310Z,13.50
2018-04-26T12:31:26.215Z,13.40
2018-04-26T12:33:55.871Z,13.40
2018-04-26T12:36:24.754Z,13.30
2018-04-26T12:38:53.640Z,13.30
2018-04-26T12:41:22.511Z,13.40
2018-04-26T12:43:51.410Z,13.30
2018-04-26T12:46:21.059Z,13.10
2018-04-26T12:48:49.926Z,13.10
2018-04-26T12:51:18.851Z,13.00
2018-04-26T12:53:48.489Z,12.90
2018-04-26T12:56:17.364Z,12.90
2018-04-26T12:58:46.265Z,12.90
2018-04-26T13:01:15.143Z,13.00
2018-04-26T13:03:44.059Z,13.00
2018-04-26T13:06:12.927Z,12.90
2018-04-26T13:08:41.800Z,12.90
2018-04-26T13:11:10.697Z,12.90
2018-04-26T13:13:39.577Z,12.80
2018-04-26T13:16:08.492Z,12.80
2018-04-26T13:18:37.362Z,12.80
2018-04-26T13:21:06.313Z,12.80
2018-04-26T13:23:35.927Z,12.70
2018-04-26T13:26:04.819Z,12.60
2018-04-26T13:28:33.683Z,12.60
2018-04-26T13:31:02.582Z,12.50
2018-04-26T13:33:32.216Z,12.50
2018-04-26T13:36:01.134Z,12.50
2018-04-26T13:38:30.004Z,12.50
2018-04-26T13:40:58.867Z,12.40
2018-04-26T13:43:27.783Z,12.30
2018-04-26T13:45:56.667Z,12.20
2018-04-26T13:48:25.971Z,12.20
2018-04-26T13:50:54.899Z,12.10
2018-04-26T13:53:24.531Z,12.10
2018-04-26T13:55:53.404Z,12.10
2018-04-26T13:58:22.305Z,12.10
2018-04-26T14:00:51.182Z,12.10
2018-04-26T14:03:20.088Z,12.10
2018-04-26T14:05:49.723Z,12.10
2018-04-26T14:08:18.594Z,12.00
2018-04-26T14:10:47.483Z,12.10
2018-04-26T14:13:16.369Z,12.10
2018-04-26T14:15:45.392Z,12.10
2018-04-26T14:18:15.055Z,12.30
2018-04-26T14:20:43.924Z,12.30
2018-04-26T14:23:12.828Z,12.30
2018-04-26T14:25:42.499Z,12.20
2018-04-26T14:28:11.396Z,12.20
2018-04-26T14:30:41.035Z,12.00
2018-04-26T14:33:09.932Z,12.00
2018-04-26T14:35:38.828Z,11.70
2018-04-26T14:38:07.701Z,11.50
2018-04-26T14:40:36.608Z,11.20
2018-04-26T14:43:05.500Z,11.00
2018-04-26T14:45:34.363Z,11.00
2018-04-26T14:48:03.248Z,10.80
2018-04-26T14:50:32.111Z,10.80
2018-04-26T14:53:01.027Z,10.70
2018-04-26T14:55:29.931Z,10.70
2018-04-26T14:57:58.823Z,10.60
2018-04-26T15:00:28.479Z,10.50
2018-04-26T15:02:57.371Z,10.50
2018-04-26T15:05:26.253Z,10.50
2018-04-26T15:07:55.923Z,10.70
2018-04-26T15:10:24.783Z,10.60
2018-04-26T15:12:53.639Z,10.60
2018-04-26T15:15:22.597Z,10.70
2018-04-26T15:17:51.415Z,10.70
2018-04-26T15:20:20.300Z,10.60
2018-04-26T15:22:49.213Z,10.60
2018-04-26T15:25:19.096Z,10.50
2018-04-26T15:27:48.760Z,10.40
2018-04-26T15:30:17.637Z,10.40
2018-04-26T15:32:46.528Z,10.30
2018-04-26T15:35:15.415Z,10.30
2018-04-26T15:37:45.049Z,10.00
2018-04-26T15:40:13.983Z,10.00
2018-04-26T15:42:43.641Z,9.70
2018-04-26T15:45:12.491Z,9.70
2018-04-26T15:47:41.352Z,9.60
2018-04-26T15:50:10.286Z,9.60
2018-04-26T15:53:02.351Z,9.60
2018-04-26T15:55:48.796Z,9.60
2018-04-26T16:06:03.007Z,9.00
2018-04-26T16:08:51.596Z,9.00
2018-04-26T16:11:38.300Z,9.00
2018-04-26T16:17:39.219Z,9.00
2018-04-26T16:24:08.643Z,9.00
2018-04-26T16:30:17.950Z,8.90
2018-04-26T16:33:05.744Z,8.90
2018-04-26T16:35:52.318Z,8.90
2018-04-26T16:38:38.851Z,8.80
2018-04-26T16:41:07.726Z,8.70
2018-04-26T16:43:36.597Z,8.70
2018-04-26T16:46:05.511Z,8.60
2018-04-26T16:48:34.383Z,8.60
2018-04-26T16:51:04.020Z,8.60
2018-04-26T16:53:32.907Z,8.60
2018-04-26T16:56:01.808Z,8.60
2018-04-26T16:58:30.667Z,8.60
2018-04-26T17:00:59.528Z,8.60
2018-04-26T17:03:28.415Z,8.50
2018-04-26T17:05:57.292Z,8.50
2018-04-26T17:08:26.779Z,8.60
2018-04-26T17:10:55.691Z,8.50
2018-04-26T17:13:24.589Z,8.50
2018-04-26T17:15:53.508Z,8.50
2018-04-26T17:18:22.383Z,8.50
2018-04-26T17:20:51.253Z,8.60
2018-04-26T17:23:20.159Z,8.60
2018-04-26T17:25:49.802Z,8.70
2018-04-26T17:28:18.674Z,8.70
2018-04-26T17:30:47.566Z,8.70
2018-04-26T17:33:16.442Z,8.70
2018-04-26T17:35:45.335Z,8.80
2018-04-26T17:38:14.983Z,8.80
2018-04-26T17:40:43.999Z,8.80
2018-04-26T17:43:12.864Z,8.80
2018-04-26T17:45:41.751Z,8.70
2018-04-26T17:48:10.699Z,8.70
2018-04-26T17:50:39.564Z,8.60
2018-04-26T17:53:08.442Z,8.60
2018-04-26T17:55:37.327Z,8.60
2018-04-26T17:58:06.239Z,8.60
2018-04-26T18:00:35.880Z,8.70
2018-04-26T18:03:04.739Z,8.70
2018-04-26T18:05:33.640Z,8.70
2018-04-26T18:08:02.512Z,8.70
2018-04-26T18:10:31.380Z,8.70
2018-04-26T18:13:00.294Z,8.80
2018-04-26T18:15:29.166Z,8.80
2018-04-26T18:17:58.813Z,8.70
2018-04-26T18:20:27.727Z,8.70
2018-04-26T18:22:56.588Z,8.70
2018-04-26T18:25:25.455Z,8.70
2018-04-26T18:27:54.363Z,8.70
2018-04-26T18:30:23.229Z,8.70
2018-04-26T18:32:52.092Z,8.60
2018-04-26T18:35:20.980Z,8.60
2018-04-26T18:37:49.863Z,8.60
2018-04-26T18:40:19.492Z,8.70
2018-04-26T18:42:48.405Z,8.60
2018-04-26T18:45:17.293Z,8.70
2018-04-26T18:47:46.227Z,8.70
2018-04-26T18:50:15.113Z,8.70
2018-04-26T18:52:43.998Z,8.70
2018-04-26T18:55:12.875Z,8.60
2018-04-26T18:57:41.739Z,8.60
2018-04-26T19:00:10.628Z,8.60
2018-04-26T19:02:39.504Z,8.70
2018-04-26T19:05:08.377Z,8.70
2018-04-26T19:07:37.264Z,8.70
2018-04-26T19:10:06.155Z,8.80
2018-04-26T19:12:35.787Z,8.80
2018-04-26T19:15:04.699Z,8.70
2018-04-26T19:17:33.610Z,8.80
2018-04-26T19:20:03.275Z,8.80
2018-04-26T19:22:32.952Z,8.80
2018-04-26T19:25:01.843Z,8.70
2018-04-26T19:27:31.486Z,8.80
2018-04-26T19:30:00.391Z,8.70
2018-04-26T19:32:29.255Z,8.80
2018-04-26T19:34:58.130Z,8.80
2018-04-26T19:37:27.040Z,8.80
2018-04-26T19:39:56.684Z,8.80
2018-04-26T19:42:25.551Z,8.80
2018-04-26T19:44:54.516Z,8.80
2018-04-26T19:47:23.415Z,8.80
2018-04-26T19:49:52.296Z,8.80
2018-04-26T19:52:21.216Z,8.80
2018-04-26T19:54:50.897Z,8.80
2018-04-26T19:57:19.780Z,8.80
2018-04-26T19:59:49.447Z,8.80
2018-04-26T20:02:18.316Z,8.80
2018-04-26T20:04:47.187Z,8.80
2018-04-26T20:07:16.099Z,8.70
2018-04-26T20:09:45.735Z,8.80
2018-04-26T20:12:14.604Z,8.80
2018-04-26T20:14:43.493Z,8.80
2018-04-26T20:17:12.352Z,8.90
2018-04-26T20:19:41.215Z,8.80
2018-04-26T20:22:10.110Z,8.90
2018-04-26T20:24:38.977Z,8.80
2018-04-26T20:27:07.851Z,8.90
2018-04-26T20:29:36.751Z,8.80
2018-04-26T20:32:05.617Z,8.90
2018-04-26T20:34:34.495Z,8.90
2018-04-26T20:37:03.379Z,8.90
2018-04-26T20:39:32.292Z,8.80
2018-04-26T20:42:01.912Z,8.70
2018-04-26T20:44:48.491Z,8.70
2018-04-26T20:47:17.355Z,8.80
2018-04-26T20:49:46.992Z,8.80
2018-04-26T20:52:16.659Z,8.70
2018-04-26T20:54:45.523Z,8.70
2018-04-26T20:57:14.392Z,8.70
2018-04-26T20:59:43.362Z,8.70
2018-04-26T21:02:12.239Z,8.70
2018-04-26T21:04:41.872Z,8.80
2018-04-26T21:07:10.775Z,8.70
2018-04-26T21:09:39.639Z,8.80
2018-04-26T21:12:08.540Z,8.80
2018-04-26T21:14:38.174Z,8.90
2018-04-26T21:17:07.054Z,8.90
2018-04-26T21:19:36.015Z,8.90
2018-04-26T21:22:04.891Z,8.90
2018-04-26T21:24:33.758Z,8.90
2018-04-26T21:27:02.677Z,8.90
2018-04-26T21:29:31.538Z,8.90
2018-04-26T21:32:00.399Z,8.90
2018-04-26T21:34:30.059Z,8.90
2018-04-26T21:36:59.696Z,8.90
2018-04-26T21:39:28.564Z,8.90
2018-04-26T21:41:57.475Z,9.00
2018-04-26T21:44:26.378Z,9.00
2018-04-26T21:46:56.023Z,9.00
2018-04-26T21:49:24.324Z,9.00
2018-04-26T21:51:59.693Z,9.00
2018-04-26T21:54:34.878Z,9.00
2018-04-26T21:57:09.988Z,9.10
2018-04-26T21:59:45.271Z,9.10
2018-04-26T22:02:19.545Z,9.10
2018-04-26T22:04:53.895Z,9.10
2018-04-26T22:07:22.782Z,9.10
2018-04-26T22:09:51.647Z,9.20
2018-04-26T22:12:20.563Z,9.20
2018-04-26T22:14:49.431Z,9.20
2018-04-26T22:17:18.291Z,9.10
2018-04-26T22:19:47.943Z,9.20
2018-04-26T22:22:16.807Z,9.10
2018-04-26T22:24:45.691Z,9.20
2018-04-26T22:27:14.563Z,9.20
2018-04-26T22:29:43.451Z,9.20
2018-04-26T22:32:12.363Z,9.10
2018-04-26T22:34:41.996Z,9.10
2018-04-26T22:37:10.867Z,9.10
2018-04-26T22:39:40.528Z,9.10
2018-04-26T22:42:10.184Z,9.10
2018-04-26T22:44:39.058Z,9.10
2018-04-26T22:47:07.944Z,9.10
2018-04-26T22:49:36.859Z,9.10
2018-04-26T22:52:05.735Z,9.10
2018-04-26T22:54:34.598Z,9.10
2018-04-26T22:57:03.492Z,9.10
2018-04-26T22:59:32.365Z,9.00
2018-04-26T23:02:01.239Z,8.90
2018-04-26T23:04:30.157Z,8.90
2018-04-26T23:06:59.032Z,8.90
2018-04-26T23:09:27.903Z,8.90
2018-04-26T23:11:56.797Z,8.90
2018-04-26T23:14:26.468Z,8.90
2018-04-26T23:16:55.419Z,8.90
2018-04-26T23:19:24.292Z,8.90
2018-04-26T23:21:53.151Z,8.90
2018-04-26T23:24:22.036Z,8.90
2018-04-26T23:26:50.935Z,9.00
2018-04-26T23:29:19.815Z,9.00
2018-04-26T23:31:48.675Z,9.00
2018-04-26T23:34:17.578Z,9.00
2018-04-26T23:36:46.435Z,9.00
2018-04-26T23:39:15.298Z,9.10
2018-04-26T23:41:44.199Z,9.00
2018-04-26T23:44:13.061Z,9.00
2018-04-26T23:46:41.915Z,9.00
2018-04-26T23:49:10.817Z,9.00
2018-04-26T23:51:39.670Z,8.90
2018-04-26T23:54:09.307Z,8.80
2018-04-26T23:56:38.956Z,8.80
2018-04-26T23:59:07.884Z,8.80
